Time;durP1;ratioP1;P1;durP2;ratioP2;P2;SDS_P1;SDS_P2;PMS_P1;PMS_P2;Temp;Humidity;BMP_temperature;BMP_pressure;BME280_temperature;BME280_humidity;BME280_pressure;Samples;Min_cycle;Max_cycle;Signal;HPM_P1;HPM_P2
2022/04/12 00:02:00;;;;;;;19.73;11.18;;;;;;;;;;5073920;28;20032;-83
2022/04/12 00:04:27;;;;;;;16.40;10.05;;;;;;;;;;5074387;28;20075;-83
2022/04/12 00:06:53;;;;;;;12.85;8.77;;;;;;;;;;5075171;28;20040;-84
2022/04/12 00:09:20;;;;;;;20.02;11.07;;;;;;;;;;5073894;28;20048;-83
2022/04/12 00:11:46;;;;;;;15.98;9.90;;;;;;;;;;5048562;28;20032;-84
2022/04/12 00:14:12;;;;;;;16.50;9.63;;;;;;;;;;5076007;28;20040;-84
2022/04/12 00:16:38;;;;;;;14.40;8.40;;;;;;;;;;5057079;28;20029;-84
2022/04/12 00:19:04;;;;;;;17.83;9.88;;;;;;;;;;5076912;28;20032;-84
2022/04/12 00:21:49;;;;;;;15.95;10.38;;;;;;;;;;5072198;28;20021;-85
2022/04/12 00:24:15;;;;;;;15.63;9.40;;;;;;;;;;5069827;28;20031;-82
2022/04/12 00:26:41;;;;;;;14.30;9.23;;;;;;;;;;5051326;28;20032;-82
2022/04/12 00:29:07;;;;;;;17.50;9.35;;;;;;;;;;5068996;28;20029;-85
2022/04/12 00:31:33;;;;;;;14.80;9.70;;;;;;;;;;5053956;28;20033;-83
2022/04/12 00:34:00;;;;;;;15.95;9.35;;;;;;;;;;5065017;28;20139;-83
2022/04/12 00:36:26;;;;;;;16.35;8.90;;;;;;;;;;5065176;28;20065;-83
2022/04/12 00:38:52;;;;;;;18.30;8.98;;;;;;;;;;5062499;28;20014;-83
2022/04/12 00:41:18;;;;;;;14.98;9.93;;;;;;;;;;5065818;28;20454;-84
2022/04/12 00:43:44;;;;;;;17.83;10.50;;;;;;;;;;5061847;28;20039;-83
2022/04/12 00:46:10;;;;;;;14.43;9.32;;;;;;;;;;5062812;28;20123;-83
2022/04/12 00:48:36;;;;;;;17.75;9.10;;;;;;;;;;5052260;28;20065;-84
2022/04/12 00:51:02;;;;;;;18.75;9.52;;;;;;;;;;5048664;28;20368;-83
2022/04/12 00:53:29;;;;;;;17.98;9.90;;;;;;;;;;5042660;28;20036;-82
2022/04/12 00:55:55;;;;;;;16.45;9.65;;;;;;;;;;5043404;28;20514;-83
2022/04/12 00:58:23;;;;;;;18.25;10.35;;;;;;;;;;5045995;28;20692;-82
2022/04/12 01:00:49;;;;;;;15.80;9.32;;;;;;;;;;5050189;28;20033;-83
2022/04/12 01:03:16;;;;;;;16.10;9.25;;;;;;;;;;5052299;28;20040;-84
2022/04/12 01:05:42;;;;;;;17.88;9.50;;;;;;;;;;5030171;28;20056;-83
2022/04/12 01:08:08;;;;;;;15.80;8.88;;;;;;;;;;5042624;28;20039;-81
2022/04/12 01:10:34;;;;;;;17.42;9.27;;;;;;;;;;5053768;28;20025;-83
2022/04/12 01:13:01;;;;;;;14.68;8.55;;;;;;;;;;5052040;28;20057;-84
2022/04/12 01:15:28;;;;;;;13.25;8.98;;;;;;;;;;5044357;28;21112;-83
2022/04/12 01:17:54;;;;;;;15.90;8.75;;;;;;;;;;5028234;28;20094;-86
2022/04/12 01:20:24;;;;;;;16.50;8.43;;;;;;;;;;5046022;28;20390;-83
2022/04/12 01:22:51;;;;;;;15.77;8.53;;;;;;;;;;5043041;28;20979;-83
2022/04/12 01:25:17;;;;;;;15.70;9.65;;;;;;;;;;5039608;28;20286;-83
2022/04/12 01:27:43;;;;;;;16.05;8.77;;;;;;;;;;5021868;28;20040;-83
2022/04/12 01:30:30;;;;;;;14.73;8.68;;;;;;;;;;5049592;28;20039;-83
2022/04/12 01:32:56;;;;;;;15.90;8.57;;;;;;;;;;5046933;28;20076;-83
2022/04/12 01:35:22;;;;;;;16.30;8.55;;;;;;;;;;5043676;28;20029;-83
2022/04/12 01:37:50;;;;;;;17.75;9.27;;;;;;;;;;5032075;28;20041;-84
2022/04/12 01:40:35;;;;;;;18.42;9.20;;;;;;;;;;5053809;28;20048;-85
2022/04/12 01:43:02;;;;;;;14.48;9.15;;;;;;;;;;5049041;28;20021;-84
2022/04/12 01:45:28;;;;;;;16.55;9.15;;;;;;;;;;5048907;28;20056;-82
2022/04/12 01:47:55;;;;;;;14.40;8.85;;;;;;;;;;5041822;28;20065;-82
2022/04/12 01:50:23;;;;;;;18.00;10.07;;;;;;;;;;5028027;28;20094;-83
2022/04/12 01:52:49;;;;;;;15.77;9.18;;;;;;;;;;5035164;28;20037;-83
2022/04/12 01:55:16;;;;;;;14.05;8.80;;;;;;;;;;5047869;28;20048;-83
2022/04/12 01:57:42;;;;;;;15.75;9.10;;;;;;;;;;5039572;28;20034;-81
2022/04/12 02:00:09;;;;;;;15.32;9.23;;;;;;;;;;5032101;28;20033;-84
2022/04/12 02:02:35;;;;;;;16.33;9.88;;;;;;;;;;5048442;28;20021;-83
2022/04/12 02:05:01;;;;;;;13.98;8.73;;;;;;;;;;5015145;28;20493;-83
2022/04/12 02:07:29;;;;;;;19.13;9.35;;;;;;;;;;5032840;28;20065;-81
2022/04/12 02:09:55;;;;;;;14.10;9.02;;;;;;;;;;5021051;28;20013;-83
2022/04/12 02:12:21;;;;;;;14.07;8.90;;;;;;;;;;5031946;28;20474;-82
2022/04/12 02:14:47;;;;;;;19.90;8.63;;;;;;;;;;5048416;28;20108;-82
2022/04/12 02:17:13;;;;;;;15.05;9.07;;;;;;;;;;5034358;28;20045;-84
2022/04/12 02:19:39;;;;;;;18.17;9.20;;;;;;;;;;5040680;28;20541;-83
2022/04/12 02:22:05;;;;;;;19.85;9.10;;;;;;;;;;5042010;28;20038;-83
2022/04/12 02:24:31;;;;;;;15.00;8.15;;;;;;;;;;5041314;28;20096;-82
2022/04/12 02:26:57;;;;;;;17.42;9.27;;;;;;;;;;5043984;28;20025;-81
2022/04/12 02:29:23;;;;;;;16.58;8.43;;;;;;;;;;5047017;28;20028;-82
2022/04/12 02:31:49;;;;;;;15.38;8.60;;;;;;;;;;5044297;28;20029;-82
2022/04/12 02:34:15;;;;;;;18.55;9.40;;;;;;;;;;5020033;28;20290;-80
2022/04/12 02:36:43;;;;;;;17.20;9.23;;;;;;;;;;5018637;28;20042;-82
2022/04/12 02:39:09;;;;;;;16.02;9.48;;;;;;;;;;5040000;28;20087;-82
2022/04/12 02:41:36;;;;;;;17.52;9.13;;;;;;;;;;5044446;28;20021;-84
2022/04/12 02:44:02;;;;;;;17.00;8.05;;;;;;;;;;5022216;28;20025;-82
2022/04/12 02:46:28;;;;;;;15.95;8.68;;;;;;;;;;5041584;28;20042;-84
2022/04/12 02:48:54;;;;;;;19.23;8.63;;;;;;;;;;5041583;28;20502;-82
2022/04/12 02:51:21;;;;;;;12.00;7.88;;;;;;;;;;5041774;28;20037;-82
2022/04/12 02:53:50;;;;;;;15.73;8.13;;;;;;;;;;5035710;28;20025;-83
2022/04/12 02:56:16;;;;;;;15.82;8.13;;;;;;;;;;5050707;28;20033;-84
2022/04/12 02:58:43;;;;;;;13.55;8.45;;;;;;;;;;5030613;28;20025;-85
2022/04/12 03:01:09;;;;;;;13.10;8.60;;;;;;;;;;5029227;28;20044;-82
2022/04/12 03:03:37;;;;;;;12.80;8.57;;;;;;;;;;5045662;28;20108;-83
2022/04/12 03:06:03;;;;;;;15.60;8.40;;;;;;;;;;5055700;28;20103;-83
2022/04/12 03:08:29;;;;;;;13.38;7.93;;;;;;;;;;5016135;28;20055;-82
2022/04/12 03:10:55;;;;;;;15.68;9.05;;;;;;;;;;5048446;28;20040;-83
2022/04/12 03:13:21;;;;;;;12.90;7.63;;;;;;;;;;5048529;28;20094;-83
2022/04/12 03:15:47;;;;;;;16.02;8.10;;;;;;;;;;5046971;28;20034;-83
2022/04/12 03:18:16;;;;;;;21.38;9.00;;;;;;;;;;5051710;28;20378;-83
2022/04/12 03:20:42;;;;;;;12.63;7.63;;;;;;;;;;5058188;28;20081;-85
2022/04/12 03:23:08;;;;;;;15.38;8.35;;;;;;;;;;5040640;28;20040;-82
2022/04/12 03:25:34;;;;;;;16.50;8.68;;;;;;;;;;5053975;28;20523;-82
2022/04/12 03:28:00;;;;;;;17.20;8.30;;;;;;;;;;5033633;28;20005;-83
2022/04/12 03:30:26;;;;;;;15.40;8.75;;;;;;;;;;5048491;28;20073;-83
2022/04/12 03:32:52;;;;;;;17.90;8.85;;;;;;;;;;5023851;28;20064;-83
2022/04/12 03:35:19;;;;;;;18.88;8.70;;;;;;;;;;5050615;28;20069;-83
2022/04/12 03:37:45;;;;;;;16.27;8.57;;;;;;;;;;5045670;28;20025;-82
2022/04/12 03:40:11;;;;;;;12.70;7.82;;;;;;;;;;5039980;28;20220;-82
2022/04/12 03:42:37;;;;;;;13.15;8.32;;;;;;;;;;5033665;28;20054;-83
2022/04/12 03:45:04;;;;;;;14.48;8.93;;;;;;;;;;5050247;28;20056;-82
2022/04/12 03:47:30;;;;;;;14.60;8.70;;;;;;;;;;5038984;28;20079;-82
2022/04/12 03:49:56;;;;;;;12.63;8.45;;;;;;;;;;5068855;28;20044;-82
2022/04/12 03:52:22;;;;;;;16.48;9.40;;;;;;;;;;5064807;28;20033;-82
2022/04/12 03:54:51;;;;;;;14.10;9.05;;;;;;;;;;5061383;28;20136;-84
2022/04/12 03:57:17;;;;;;;16.52;9.38;;;;;;;;;;5048059;28;20025;-82
2022/04/12 03:59:43;;;;;;;14.05;8.82;;;;;;;;;;5046368;28;20029;-82
2022/04/12 04:02:09;;;;;;;15.93;9.25;;;;;;;;;;5058775;28;20071;-82
2022/04/12 04:04:35;;;;;;;16.88;9.02;;;;;;;;;;5065015;28;20513;-83
2022/04/12 04:07:01;;;;;;;17.02;9.55;;;;;;;;;;5059932;28;20064;-82
2022/04/12 04:09:27;;;;;;;14.35;9.15;;;;;;;;;;5067131;28;20037;-83
2022/04/12 04:11:55;;;;;;;18.23;9.40;;;;;;;;;;5040387;28;20033;-83
2022/04/12 04:14:23;;;;;;;16.77;8.98;;;;;;;;;;5063714;28;20033;-82
2022/04/12 04:16:49;;;;;;;19.50;9.50;;;;;;;;;;5074116;28;20073;-82
2022/04/12 04:19:15;;;;;;;13.73;8.38;;;;;;;;;;5068060;28;20210;-82
2022/04/12 04:21:40;;;;;;;14.50;9.27;;;;;;;;;;5072487;28;20050;-82
2022/04/12 04:24:07;;;;;;;14.38;9.32;;;;;;;;;;5066805;28;20009;-82
2022/04/12 04:26:33;;;;;;;18.35;9.43;;;;;;;;;;5073178;28;20036;-83
2022/04/12 04:29:00;;;;;;;24.67;9.98;;;;;;;;;;5051064;28;20558;-82
2022/04/12 04:31:26;;;;;;;23.67;9.43;;;;;;;;;;5067577;28;20126;-82
2022/04/12 04:33:52;;;;;;;17.50;9.00;;;;;;;;;;5051945;28;20103;-82
2022/04/12 04:36:18;;;;;;;37.95;10.98;;;;;;;;;;5043742;28;20533;-82
2022/04/12 04:38:44;;;;;;;30.35;10.20;;;;;;;;;;5046656;28;20024;-83
2022/04/12 04:41:10;;;;;;;14.52;8.95;;;;;;;;;;5050672;28;20029;-83
2022/04/12 04:43:36;;;;;;;16.10;10.10;;;;;;;;;;5066087;28;20486;-83
2022/04/12 04:46:02;;;;;;;29.98;11.52;;;;;;;;;;5068441;28;20019;-81
2022/04/12 04:48:28;;;;;;;24.05;9.27;;;;;;;;;;5051131;28;20091;-81
2022/04/12 04:50:54;;;;;;;18.48;9.07;;;;;;;;;;5042126;28;20389;-82
2022/04/12 04:53:20;;;;;;;19.58;9.43;;;;;;;;;;5027002;28;20119;-82
2022/04/12 04:55:47;;;;;;;15.88;9.32;;;;;;;;;;5048955;28;20043;-82
2022/04/12 04:58:13;;;;;;;15.63;9.43;;;;;;;;;;5045169;28;20025;-86
2022/04/12 05:00:39;;;;;;;27.17;9.85;;;;;;;;;;5025063;28;20028;-83
2022/04/12 05:03:05;;;;;;;21.30;9.07;;;;;;;;;;5043004;28;20449;-82
2022/04/12 05:05:31;;;;;;;23.02;9.35;;;;;;;;;;5046314;28;20013;-80
2022/04/12 05:07:58;;;;;;;23.48;10.13;;;;;;;;;;5044107;28;20044;-82
2022/04/12 05:10:29;;;;;;;20.25;8.75;;;;;;;;;;5047887;28;20438;-82
2022/04/12 05:12:55;;;;;;;16.63;9.60;;;;;;;;;;5045574;28;20029;-83
2022/04/12 05:15:21;;;;;;;16.75;9.23;;;;;;;;;;5044205;28;20470;-83
2022/04/12 05:17:51;;;;;;;18.95;10.07;;;;;;;;;;5044644;28;20033;-80
2022/04/12 05:20:17;;;;;;;15.50;9.98;;;;;;;;;;5056805;28;20017;-82
2022/04/12 05:22:43;;;;;;;20.50;9.93;;;;;;;;;;5045808;28;20033;-82
2022/04/12 05:25:10;;;;;;;26.40;10.75;;;;;;;;;;5046319;28;20040;-82
2022/04/12 05:27:36;;;;;;;18.40;10.18;;;;;;;;;;5043891;28;20121;-80
2022/04/12 05:30:03;;;;;;;13.07;9.18;;;;;;;;;;5041285;28;20034;-78
2022/04/12 05:32:29;;;;;;;15.25;8.77;;;;;;;;;;5044100;28;20028;-80
2022/04/12 05:34:55;;;;;;;15.95;9.73;;;;;;;;;;5024708;28;20132;-79
2022/04/12 05:37:22;;;;;;;14.27;9.60;;;;;;;;;;5040787;28;20048;-79
2022/04/12 05:39:48;;;;;;;20.15;9.65;;;;;;;;;;5041318;28;20120;-79
2022/04/12 05:42:14;;;;;;;13.65;8.95;;;;;;;;;;5039236;28;20029;-79
2022/04/12 05:44:40;;;;;;;12.80;8.90;;;;;;;;;;5036388;28;20024;-79
2022/04/12 05:47:10;;;;;;;20.75;9.77;;;;;;;;;;5039245;28;20025;-80
2022/04/12 05:49:36;;;;;;;16.15;8.95;;;;;;;;;;5038155;28;20029;-79
2022/04/12 05:52:02;;;;;;;21.20;10.32;;;;;;;;;;5018045;28;20042;-77
2022/04/12 05:54:28;;;;;;;15.55;9.00;;;;;;;;;;5042815;28;20025;-77
2022/04/12 05:56:54;;;;;;;19.85;9.52;;;;;;;;;;5042201;28;20196;-79
2022/04/12 05:59:22;;;;;;;15.32;9.10;;;;;;;;;;5034375;28;20025;-78
2022/04/12 06:01:48;;;;;;;24.42;9.30;;;;;;;;;;5042015;28;20509;-79
2022/04/12 06:04:16;;;;;;;17.77;9.45;;;;;;;;;;5032790;28;20056;-79
2022/04/12 06:06:42;;;;;;;24.75;8.70;;;;;;;;;;5045528;28;20224;-79
2022/04/12 06:09:08;;;;;;;18.02;8.85;;;;;;;;;;5036534;28;20092;-79
2022/04/12 06:11:35;;;;;;;19.98;9.10;;;;;;;;;;5037346;28;20052;-78
2022/04/12 06:14:01;;;;;;;16.17;8.85;;;;;;;;;;5035547;28;20075;-77
2022/04/12 06:16:27;;;;;;;15.57;8.43;;;;;;;;;;5034432;28;20514;-77
2022/04/12 06:18:53;;;;;;;13.18;8.35;;;;;;;;;;5030469;28;20048;-78
2022/04/12 06:21:20;;;;;;;16.65;8.23;;;;;;;;;;5032490;28;20029;-77
2022/04/12 06:23:46;;;;;;;19.42;8.63;;;;;;;;;;5024307;28;20494;-79
2022/04/12 06:26:13;;;;;;;15.40;7.70;;;;;;;;;;5038461;28;20091;-78
2022/04/12 06:28:39;;;;;;;15.57;8.07;;;;;;;;;;5041466;28;20127;-78
2022/04/12 06:31:05;;;;;;;15.52;8.10;;;;;;;;;;5039923;28;20120;-80
2022/04/12 06:33:31;;;;;;;13.93;7.32;;;;;;;;;;5038596;28;20056;-77
2022/04/12 06:35:57;;;;;;;15.18;7.88;;;;;;;;;;5031226;28;20033;-78
2022/04/12 06:38:23;;;;;;;15.85;7.55;;;;;;;;;;5041370;28;20106;-78
2022/04/12 06:40:49;;;;;;;12.63;7.18;;;;;;;;;;5048443;28;20030;-78
2022/04/12 06:43:16;;;;;;;17.35;7.18;;;;;;;;;;5030042;28;20182;-78
2022/04/12 06:45:42;;;;;;;12.45;7.50;;;;;;;;;;5040791;28;20118;-78
2022/04/12 06:48:09;;;;;;;13.73;7.70;;;;;;;;;;5029022;28;20049;-79
2022/04/12 06:50:35;;;;;;;14.45;7.45;;;;;;;;;;5047711;28;20037;-77
2022/04/12 06:53:05;;;;;;;12.50;7.85;;;;;;;;;;5041230;28;20029;-78
2022/04/12 06:55:31;;;;;;;15.70;8.60;;;;;;;;;;5043998;28;20088;-78
2022/04/12 06:57:57;;;;;;;15.30;8.20;;;;;;;;;;5041289;28;20546;-77
2022/04/12 07:00:25;;;;;;;17.13;7.63;;;;;;;;;;5040066;28;20029;-78
2022/04/12 07:02:52;;;;;;;12.60;7.35;;;;;;;;;;5040865;28;20036;-78
2022/04/12 07:05:18;;;;;;;12.57;7.32;;;;;;;;;;5025454;28;20569;-78
2022/04/12 07:07:44;;;;;;;14.25;7.38;;;;;;;;;;5045933;28;20021;-78
2022/04/12 07:10:11;;;;;;;17.40;7.78;;;;;;;;;;5043977;28;20510;-78
2022/04/12 07:12:38;;;;;;;15.13;7.85;;;;;;;;;;5046901;28;20035;-78
2022/04/12 07:15:05;;;;;;;17.67;9.05;;;;;;;;;;5055614;28;20035;-77
2022/04/12 07:17:31;;;;;;;15.70;7.88;;;;;;;;;;5045797;28;20037;-78
2022/04/12 07:19:57;;;;;;;13.40;7.78;;;;;;;;;;5035522;28;20068;-79
2022/04/12 07:22:23;;;;;;;16.67;10.65;;;;;;;;;;5049162;28;20033;-79
2022/04/12 07:24:49;;;;;;;18.05;8.57;;;;;;;;;;5052597;28;20056;-81
2022/04/12 07:27:15;;;;;;;15.52;8.70;;;;;;;;;;5055732;28;20013;-80
2022/04/12 07:29:41;;;;;;;17.40;8.15;;;;;;;;;;5043153;28;20037;-82
2022/04/12 07:32:07;;;;;;;11.18;6.65;;;;;;;;;;5067674;28;20037;-79
2022/04/12 07:34:33;;;;;;;13.93;6.70;;;;;;;;;;5043220;28;20022;-81
2022/04/12 07:36:59;;;;;;;13.18;6.65;;;;;;;;;;5051463;28;20108;-83
2022/04/12 07:39:25;;;;;;;13.23;6.47;;;;;;;;;;5044552;28;20604;-82
2022/04/12 07:41:52;;;;;;;14.75;7.00;;;;;;;;;;5044433;28;20048;-80
2022/04/12 07:44:18;;;;;;;12.35;7.40;;;;;;;;;;5050723;28;20461;-81
2022/04/12 07:46:45;;;;;;;11.85;6.72;;;;;;;;;;5054540;28;20052;-83
2022/04/12 07:49:11;;;;;;;11.75;6.57;;;;;;;;;;5049158;28;20111;-80
2022/04/12 07:51:38;;;;;;;15.50;7.55;;;;;;;;;;5041397;28;20035;-83
2022/04/12 07:54:04;;;;;;;10.63;6.88;;;;;;;;;;5020960;28;20022;-80
2022/04/12 07:56:31;;;;;;;11.82;6.72;;;;;;;;;;5026925;28;20101;-82
2022/04/12 07:58:57;;;;;;;11.32;8.02;;;;;;;;;;5028636;28;20460;-81
2022/04/12 08:01:23;;;;;;;12.90;6.35;;;;;;;;;;5041199;28;20111;-82
2022/04/12 08:03:49;;;;;;;11.93;7.80;;;;;;;;;;5046020;28;20021;-80
2022/04/12 08:06:15;;;;;;;16.15;6.28;;;;;;;;;;5031381;28;20044;-82
2022/04/12 08:08:41;;;;;;;12.25;7.35;;;;;;;;;;5024974;28;20008;-80
2022/04/12 08:11:07;;;;;;;12.48;6.97;;;;;;;;;;5036472;28;20029;-83
2022/04/12 08:13:34;;;;;;;13.65;6.90;;;;;;;;;;5043169;28;20041;-81
2022/04/12 08:16:00;;;;;;;11.70;6.35;;;;;;;;;;5045171;28;20107;-81
2022/04/12 08:18:26;;;;;;;11.65;6.07;;;;;;;;;;5017558;28;20064;-79
2022/04/12 08:20:55;;;;;;;14.30;6.15;;;;;;;;;;5028853;28;20036;-83
2022/04/12 08:23:22;;;;;;;16.67;5.75;;;;;;;;;;5040111;28;20041;-81
2022/04/12 08:25:49;;;;;;;7.35;5.38;;;;;;;;;;5043025;28;20128;-79
2022/04/12 08:28:15;;;;;;;8.70;5.63;;;;;;;;;;5047975;28;20036;-83
2022/04/12 08:30:41;;;;;;;13.63;6.47;;;;;;;;;;5040523;28;20032;-84
2022/04/12 08:33:07;;;;;;;9.73;6.03;;;;;;;;;;5040011;28;20583;-84
2022/04/12 08:35:33;;;;;;;9.43;6.32;;;;;;;;;;5039613;28;20041;-82
2022/04/12 08:37:59;;;;;;;10.13;6.72;;;;;;;;;;5020254;28;20085;-84
2022/04/12 08:40:25;;;;;;;9.55;6.07;;;;;;;;;;5021096;28;20041;-91
2022/04/12 08:42:54;;;;;;;10.23;6.20;;;;;;;;;;5021341;28;20037;-88
2022/04/12 08:45:21;;;;;;;11.68;7.50;;;;;;;;;;5013354;28;20117;-84
2022/04/12 08:47:50;;;;;;;9.18;6.20;;;;;;;;;;5044683;28;20163;-89
2022/04/12 08:50:19;;;;;;;11.50;5.95;;;;;;;;;;5059664;28;20045;-87
2022/04/12 08:52:46;;;;;;;9.25;6.22;;;;;;;;;;5036513;28;20037;-85
2022/04/12 08:55:12;;;;;;;10.40;6.40;;;;;;;;;;5070676;28;20043;-84
2022/04/12 08:57:38;;;;;;;22.30;6.68;;;;;;;;;;5065174;28;20028;-86
2022/04/12 09:00:05;;;;;;;10.05;5.68;;;;;;;;;;5056389;28;20085;-80
2022/04/12 09:02:32;;;;;;;10.05;5.65;;;;;;;;;;5057733;28;20056;-83
2022/04/12 09:04:58;;;;;;;10.70;6.32;;;;;;;;;;5063789;28;20052;-79
2022/04/12 09:07:26;;;;;;;9.57;6.35;;;;;;;;;;5044945;28;20566;-79
2022/04/12 09:09:52;;;;;;;13.02;6.05;;;;;;;;;;5071242;28;20018;-81
2022/04/12 09:12:19;;;;;;;9.90;5.43;;;;;;;;;;5071021;28;20375;-80
2022/04/12 09:14:52;;;;;;;12.50;5.78;;;;;;;;;;5073372;28;20049;-81
2022/04/12 09:17:28;;;;;;;10.02;6.32;;;;;;;;;;5042018;28;20494;-81
2022/04/12 09:19:55;;;;;;;11.30;5.88;;;;;;;;;;5054023;28;20017;-80
2022/04/12 09:22:24;;;;;;;11.38;6.20;;;;;;;;;;5038508;28;20025;-80
2022/04/12 09:24:51;;;;;;;9.83;6.70;;;;;;;;;;5058802;28;20009;-79
2022/04/12 09:27:21;;;;;;;10.02;5.82;;;;;;;;;;5074832;28;20137;-81
2022/04/12 09:29:51;;;;;;;9.02;6.15;;;;;;;;;;5066777;28;20033;-79
2022/04/12 09:32:25;;;;;;;11.20;6.35;;;;;;;;;;5073579;28;20043;-81
2022/04/12 09:34:52;;;;;;;10.73;6.05;;;;;;;;;;5067260;28;20305;-80
2022/04/12 09:37:31;;;;;;;14.23;7.15;;;;;;;;;;5068563;28;20216;-79
2022/04/12 09:40:00;;;;;;;10.10;6.80;;;;;;;;;;5062025;28;20037;-81
2022/04/12 09:42:40;;;;;;;11.02;7.10;;;;;;;;;;5065205;28;20013;-81
2022/04/12 09:45:07;;;;;;;16.48;7.10;;;;;;;;;;5063631;28;20466;-80
2022/04/12 09:47:34;;;;;;;13.10;7.32;;;;;;;;;;5040823;28;20107;-78
2022/04/12 09:50:01;;;;;;;11.80;7.70;;;;;;;;;;5058811;28;20117;-81
2022/04/12 09:52:30;;;;;;;11.50;6.95;;;;;;;;;;5064555;28;20502;-81
2022/04/12 09:54:56;;;;;;;11.55;6.63;;;;;;;;;;5052009;28;20037;-79
2022/04/12 09:57:24;;;;;;;11.02;7.03;;;;;;;;;;5067593;28;20037;-80
2022/04/12 09:59:55;;;;;;;14.05;7.18;;;;;;;;;;5058527;28;20021;-81
2022/04/12 10:02:26;;;;;;;14.00;7.63;;;;;;;;;;5060164;28;20032;-80
2022/04/12 10:04:53;;;;;;;11.15;6.78;;;;;;;;;;5064770;28;20389;-82
2022/04/12 10:07:20;;;;;;;10.52;6.35;;;;;;;;;;5063929;28;20032;-82
2022/04/12 10:09:48;;;;;;;16.65;6.80;;;;;;;;;;5062868;28;20043;-81
2022/04/12 10:12:22;;;;;;;12.35;7.43;;;;;;;;;;5051680;28;20024;-82
2022/04/12 10:14:48;;;;;;;12.55;6.53;;;;;;;;;;5061724;28;20037;-81
2022/04/12 10:17:14;;;;;;;13.93;6.13;;;;;;;;;;5070280;28;20057;-80
2022/04/12 10:19:42;;;;;;;10.43;6.30;;;;;;;;;;5066502;28;20029;-80
2022/04/12 10:22:08;;;;;;;8.75;5.85;;;;;;;;;;5062865;28;20036;-80
2022/04/12 10:24:35;;;;;;;11.18;6.10;;;;;;;;;;5040024;28;20501;-80
2022/04/12 10:27:01;;;;;;;11.52;6.18;;;;;;;;;;5065249;28;20420;-81
2022/04/12 10:29:27;;;;;;;11.82;6.80;;;;;;;;;;5049051;28;20041;-80
2022/04/12 10:31:55;;;;;;;13.68;6.90;;;;;;;;;;5062325;28;20035;-81
2022/04/12 10:34:21;;;;;;;15.23;6.85;;;;;;;;;;5068617;28;20138;-80
2022/04/12 10:36:54;;;;;;;15.00;6.72;;;;;;;;;;5039151;28;20040;-80
2022/04/12 10:39:21;;;;;;;9.40;5.50;;;;;;;;;;5041784;28;20139;-79
2022/04/12 10:41:50;;;;;;;11.90;5.57;;;;;;;;;;5059715;28;20033;-82
2022/04/12 10:44:20;;;;;;;10.85;6.10;;;;;;;;;;5059519;28;20481;-80
2022/04/12 10:46:50;;;;;;;9.87;5.87;;;;;;;;;;5061814;28;20060;-79
2022/04/12 10:49:21;;;;;;;8.23;5.43;;;;;;;;;;5041007;28;20295;-80
2022/04/12 10:51:56;;;;;;;11.30;5.32;;;;;;;;;;5052758;28;20460;-81
2022/04/12 10:54:28;;;;;;;9.93;5.63;;;;;;;;;;5036949;28;20094;-80
2022/04/12 10:57:13;;;;;;;9.05;5.50;;;;;;;;;;5062039;28;20040;-81
2022/04/12 10:59:40;;;;;;;10.10;5.80;;;;;;;;;;5045216;28;20084;-80
2022/04/12 11:02:11;;;;;;;13.38;5.60;;;;;;;;;;5056557;28;20028;-80
2022/04/12 11:04:38;;;;;;;14.30;6.18;;;;;;;;;;5056955;28;20060;-80
2022/04/12 11:07:06;;;;;;;9.75;6.90;;;;;;;;;;5040883;28;20536;-80
2022/04/12 11:09:34;;;;;;;11.02;6.65;;;;;;;;;;5057310;28;20025;-79
2022/04/12 11:12:03;;;;;;;9.95;6.28;;;;;;;;;;5059078;28;20109;-81
2022/04/12 11:14:50;;;;;;;10.80;6.97;;;;;;;;;;5054104;28;20095;-81
2022/04/12 11:17:22;;;;;;;12.10;6.05;;;;;;;;;;5040911;28;20112;-80
2022/04/12 11:19:54;;;;;;;13.77;5.80;;;;;;;;;;5044596;28;20028;-82
2022/04/12 11:22:23;;;;;;;12.35;6.07;;;;;;;;;;5063336;28;20136;-79
2022/04/12 11:25:07;;;;;;;16.77;7.60;;;;;;;;;;5038645;28;20028;-80
2022/04/12 11:27:34;;;;;;;17.42;7.15;;;;;;;;;;5056966;28;20025;-82
2022/04/12 11:30:00;;;;;;;15.90;6.72;;;;;;;;;;5041681;28;20112;-80
2022/04/12 11:32:26;;;;;;;38.50;14.70;;;;;;;;;;5045343;28;20024;-81
2022/04/12 11:34:53;;;;;;;14.77;8.23;;;;;;;;;;5071955;28;20063;-81
2022/04/12 11:37:19;;;;;;;12.40;6.20;;;;;;;;;;5041197;28;20049;-79
2022/04/12 11:39:45;;;;;;;12.48;6.63;;;;;;;;;;5068026;28;20401;-81
2022/04/12 11:42:12;;;;;;;11.07;6.40;;;;;;;;;;5066029;28;20045;-81
2022/04/12 11:44:39;;;;;;;13.88;5.78;;;;;;;;;;5064294;28;20044;-82
2022/04/12 11:47:07;;;;;;;9.65;5.60;;;;;;;;;;5052748;28;20032;-79
2022/04/12 11:49:34;;;;;;;14.40;6.03;;;;;;;;;;5052065;28;20045;-80
2022/04/12 11:52:01;;;;;;;12.90;6.38;;;;;;;;;;5042302;28;20025;-81
2022/04/12 11:54:37;;;;;;;11.40;6.22;;;;;;;;;;5049241;28;20095;-82
2022/04/12 11:57:03;;;;;;;11.35;5.90;;;;;;;;;;5054429;28;20033;-80
2022/04/12 11:59:30;;;;;;;12.13;6.20;;;;;;;;;;5050786;28;20486;-81
2022/04/12 12:02:01;;;;;;;14.50;5.95;;;;;;;;;;5049173;28;20030;-83
2022/04/12 12:04:32;;;;;;;10.10;5.07;;;;;;;;;;5040236;28;20099;-83
2022/04/12 12:07:05;;;;;;;11.35;5.00;;;;;;;;;;5044796;28;20060;-79
2022/04/12 12:09:33;;;;;;;11.77;5.80;;;;;;;;;;5061385;28;20036;-83
2022/04/12 12:12:00;;;;;;;15.60;6.07;;;;;;;;;;5072421;28;20032;-81
2022/04/12 12:14:27;;;;;;;15.73;6.55;;;;;;;;;;5061309;28;20037;-81
2022/04/12 12:17:01;;;;;;;12.23;6.30;;;;;;;;;;5045221;28;20077;-84
2022/04/12 12:19:27;;;;;;;16.73;6.10;;;;;;;;;;5049890;28;20033;-81
2022/04/12 12:21:53;;;;;;;9.18;5.30;;;;;;;;;;5045735;28;20037;-81
2022/04/12 12:24:19;;;;;;;13.05;6.38;;;;;;;;;;5048043;28;20093;-81
2022/04/12 12:26:45;;;;;;;18.23;5.72;;;;;;;;;;5020501;28;20128;-82
2022/04/12 12:29:12;;;;;;;13.23;5.97;;;;;;;;;;5040431;28;20088;-78
2022/04/12 12:31:43;;;;;;;9.90;6.03;;;;;;;;;;5048317;28;20051;-82
2022/04/12 12:34:10;;;;;;;11.27;6.32;;;;;;;;;;5040978;28;20025;-82
2022/04/12 12:36:36;;;;;;;13.88;6.80;;;;;;;;;;5041739;28;20360;-81
2022/04/12 12:39:07;;;;;;;17.85;6.45;;;;;;;;;;5055196;28;20101;-84
2022/04/12 12:41:33;;;;;;;15.23;7.10;;;;;;;;;;5041203;28;20037;-82
2022/04/12 12:44:03;;;;;;;11.00;6.78;;;;;;;;;;5035931;28;20068;-84
2022/04/12 12:46:32;;;;;;;12.13;6.95;;;;;;;;;;5039429;28;20038;-81
2022/04/12 12:49:13;;;;;;;13.50;6.80;;;;;;;;;;5062369;28;20506;-82
2022/04/12 12:51:40;;;;;;;13.10;7.18;;;;;;;;;;5057115;28;20122;-82
2022/04/12 12:54:14;;;;;;;14.50;6.75;;;;;;;;;;5039475;28;20082;-83
2022/04/12 12:56:41;;;;;;;15.25;6.93;;;;;;;;;;5067871;28;20052;-80
2022/04/12 12:59:33;;;;;;;11.90;7.05;;;;;;;;;;5051651;28;20033;-80
2022/04/12 13:02:07;;;;;;;17.88;7.68;;;;;;;;;;5051970;28;20139;-81
2022/04/12 13:04:33;;;;;;;14.70;8.30;;;;;;;;;;5063801;28;20112;-81
2022/04/12 13:07:01;;;;;;;19.08;7.72;;;;;;;;;;5053525;28;20033;-81
2022/04/12 13:09:27;;;;;;;16.85;8.07;;;;;;;;;;5054692;28;20039;-80
2022/04/12 13:11:53;;;;;;;13.10;7.80;;;;;;;;;;5054943;28;20052;-77
2022/04/12 13:14:19;;;;;;;15.13;8.02;;;;;;;;;;5061915;28;20071;-78
2022/04/12 13:16:52;;;;;;;15.90;8.02;;;;;;;;;;5059911;28;20029;-83
2022/04/12 13:19:28;;;;;;;13.13;8.23;;;;;;;;;;5066810;28;20039;-80
2022/04/12 13:21:58;;;;;;;15.40;8.98;;;;;;;;;;5077223;28;20024;-78
2022/04/12 13:24:24;;;;;;;13.80;8.65;;;;;;;;;;5041663;28;20098;-79
2022/04/12 13:26:51;;;;;;;16.65;8.98;;;;;;;;;;5036377;28;20052;-79
2022/04/12 13:29:21;;;;;;;17.90;9.32;;;;;;;;;;5061663;28;20044;-79
2022/04/12 13:31:49;;;;;;;16.13;9.32;;;;;;;;;;5074461;28;20037;-79
2022/04/12 13:34:16;;;;;;;13.48;8.23;;;;;;;;;;5078072;28;20005;-80
2022/04/12 13:36:43;;;;;;;12.70;8.48;;;;;;;;;;5059387;28;20033;-79
2022/04/12 13:39:09;;;;;;;19.30;9.23;;;;;;;;;;5041862;28;20060;-79
2022/04/12 13:41:39;;;;;;;16.33;8.55;;;;;;;;;;5097140;28;20034;-80
2022/04/12 13:44:06;;;;;;;13.60;8.67;;;;;;;;;;5068129;28;20184;-79
2022/04/12 13:46:33;;;;;;;19.40;9.57;;;;;;;;;;5065968;28;20297;-79
2022/04/12 13:49:01;;;;;;;15.43;8.85;;;;;;;;;;5066305;28;20065;-80
2022/04/12 13:51:28;;;;;;;15.80;9.43;;;;;;;;;;5067635;28;20048;-81
2022/04/12 13:53:54;;;;;;;16.10;8.93;;;;;;;;;;5069992;28;20013;-80
2022/04/12 13:56:20;;;;;;;13.82;7.95;;;;;;;;;;5063794;28;20089;-80
2022/04/12 13:58:46;;;;;;;16.67;9.43;;;;;;;;;;5055685;28;20025;-78
2022/04/12 14:01:12;;;;;;;18.58;9.40;;;;;;;;;;5056441;28;20025;-78
2022/04/12 14:03:38;;;;;;;18.27;9.90;;;;;;;;;;5055249;28;20020;-82
2022/04/12 14:06:04;;;;;;;23.40;10.13;;;;;;;;;;5060949;28;20025;-80
2022/04/12 14:08:30;;;;;;;21.80;9.98;;;;;;;;;;5083661;28;20332;-80
2022/04/12 14:10:57;;;;;;;17.15;9.60;;;;;;;;;;5060829;28;20180;-80
2022/04/12 14:13:23;;;;;;;22.25;10.40;;;;;;;;;;5056580;28;20134;-81
2022/04/12 14:15:49;;;;;;;16.70;10.45;;;;;;;;;;5052125;28;20040;-85
2022/04/12 14:18:16;;;;;;;17.50;9.48;;;;;;;;;;5049274;28;20029;-84
2022/04/12 14:20:42;;;;;;;16.63;10.30;;;;;;;;;;5085944;28;20043;-82
2022/04/12 14:23:11;;;;;;;16.05;9.07;;;;;;;;;;5047497;28;20060;-81
2022/04/12 14:25:38;;;;;;;22.63;9.55;;;;;;;;;;5064751;28;20029;-80
2022/04/12 14:28:04;;;;;;;20.73;11.13;;;;;;;;;;5059625;28;20044;-84
2022/04/12 14:30:30;;;;;;;19.42;9.43;;;;;;;;;;5057188;28;20037;-77
2022/04/12 14:32:56;;;;;;;21.83;10.20;;;;;;;;;;5052102;28;20439;-79